sensor_id;sensor_type;location;lat;lon;timestamp;P1;durP1;ratioP1;P2;durP2;ratioP2
36597;SDS011;22607;49.550;11.940;2024-01-11T00:01:23;29.93;;;12.30;;
36597;SDS011;22607;49.550;11.940;2024-01-11T00:03:50;31.93;;;13.53;;
36597;SDS011;22607;49.550;11.940;2024-01-11T00:06:17;32.30;;;13.10;;
36597;SDS011;22607;49.550;11.940;2024-01-11T00:08:44;30.70;;;13.77;;
36597;SDS011;22607;49.550;11.940;2024-01-11T00:11:11;28.43;;;12.80;;
36597;SDS011;22607;49.550;11.940;2024-01-11T00:13:40;31.73;;;13.53;;
36597;SDS011;22607;49.550;11.940;2024-01-11T00:16:07;35.10;;;15.17;;
36597;SDS011;22607;49.550;11.940;2024-01-11T00:18:33;34.70;;;14.77;;
36597;SDS011;22607;49.550;11.940;2024-01-11T00:21:00;34.50;;;15.60;;
36597;SDS011;22607;49.550;11.940;2024-01-11T00:23:28;34.47;;;15.70;;
36597;SDS011;22607;49.550;11.940;2024-01-11T00:25:59;29.83;;;13.87;;
36597;SDS011;22607;49.550;11.940;2024-01-11T00:28:26;31.97;;;14.30;;
36597;SDS011;22607;49.550;11.940;2024-01-11T00:30:54;31.33;;;13.53;;
36597;SDS011;22607;49.550;11.940;2024-01-11T00:33:21;35.20;;;14.70;;
36597;SDS011;22607;49.550;11.940;2024-01-11T00:35:57;33.17;;;13.63;;
36597;SDS011;22607;49.550;11.940;2024-01-11T00:38:25;30.40;;;13.43;;
36597;SDS011;22607;49.550;11.940;2024-01-11T00:40:51;32.03;;;14.37;;
36597;SDS011;22607;49.550;11.940;2024-01-11T00:43:18;34.07;;;13.47;;
36597;SDS011;22607;49.550;11.940;2024-01-11T00:45:47;29.67;;;13.53;;
36597;SDS011;22607;49.550;11.940;2024-01-11T00:48:14;30.63;;;12.90;;
36597;SDS011;22607;49.550;11.940;2024-01-11T00:53:59;35.20;;;15.20;;
36597;SDS011;22607;49.550;11.940;2024-01-11T00:56:25;29.30;;;11.83;;
36597;SDS011;22607;49.550;11.940;2024-01-11T01:01:51;29.70;;;12.83;;
36597;SDS011;22607;49.550;11.940;2024-01-11T01:04:23;29.30;;;12.20;;
36597;SDS011;22607;49.550;11.940;2024-01-11T01:06:50;29.93;;;11.23;;
36597;SDS011;22607;49.550;11.940;2024-01-11T01:11:59;29.07;;;13.37;;
36597;SDS011;22607;49.550;11.940;2024-01-11T01:14:26;27.93;;;13.10;;
36597;SDS011;22607;49.550;11.940;2024-01-11T01:17:02;26.30;;;11.33;;
36597;SDS011;22607;49.550;11.940;2024-01-11T01:19:29;31.93;;;12.97;;
36597;SDS011;22607;49.550;11.940;2024-01-11T01:22:00;29.30;;;12.63;;
36597;SDS011;22607;49.550;11.940;2024-01-11T01:24:27;26.67;;;12.02;;
36597;SDS011;22607;49.550;11.940;2024-01-11T01:26:54;30.67;;;13.77;;
36597;SDS011;22607;49.550;11.940;2024-01-11T01:31:58;30.30;;;12.87;;
36597;SDS011;22607;49.550;11.940;2024-01-11T01:34:25;33.20;;;14.20;;
36597;SDS011;22607;49.550;11.940;2024-01-11T01:36:52;29.37;;;14.03;;
36597;SDS011;22607;49.550;11.940;2024-01-11T01:39:20;27.33;;;12.10;;
36597;SDS011;22607;49.550;11.940;2024-01-11T01:41:47;31.73;;;13.80;;
36597;SDS011;22607;49.550;11.940;2024-01-11T01:46:49;30.13;;;13.03;;
36597;SDS011;22607;49.550;11.940;2024-01-11T01:49:18;30.10;;;12.70;;
36597;SDS011;22607;49.550;11.940;2024-01-11T01:51:49;61.15;;;26.63;;
36597;SDS011;22607;49.550;11.940;2024-01-11T01:54:21;52.30;;;21.03;;
36597;SDS011;22607;49.550;11.940;2024-01-11T01:56:49;41.10;;;16.30;;
36597;SDS011;22607;49.550;11.940;2024-01-11T01:59:17;33.43;;;16.50;;
36597;SDS011;22607;49.550;11.940;2024-01-11T02:01:46;30.70;;;15.37;;
36597;SDS011;22607;49.550;11.940;2024-01-11T02:04:14;29.83;;;13.60;;
36597;SDS011;22607;49.550;11.940;2024-01-11T02:09:56;26.87;;;11.77;;
36597;SDS011;22607;49.550;11.940;2024-01-11T02:12:25;27.13;;;11.30;;
36597;SDS011;22607;49.550;11.940;2024-01-11T02:14:53;29.63;;;11.60;;
36597;SDS011;22607;49.550;11.940;2024-01-11T02:17:20;30.43;;;14.10;;
36597;SDS011;22607;49.550;11.940;2024-01-11T02:19:47;31.30;;;15.77;;
36597;SDS011;22607;49.550;11.940;2024-01-11T02:22:32;29.97;;;14.80;;
36597;SDS011;22607;49.550;11.940;2024-01-11T02:25:02;32.53;;;12.90;;
36597;SDS011;22607;49.550;11.940;2024-01-11T02:27:28;28.33;;;13.33;;
36597;SDS011;22607;49.550;11.940;2024-01-11T02:29:55;33.80;;;15.17;;
36597;SDS011;22607;49.550;11.940;2024-01-11T02:32:22;28.67;;;12.90;;
36597;SDS011;22607;49.550;11.940;2024-01-11T02:34:49;30.83;;;13.40;;
36597;SDS011;22607;49.550;11.940;2024-01-11T02:37:18;34.00;;;14.13;;
36597;SDS011;22607;49.550;11.940;2024-01-11T02:39:45;36.17;;;15.43;;
36597;SDS011;22607;49.550;11.940;2024-01-11T02:42:14;32.30;;;13.50;;
36597;SDS011;22607;49.550;11.940;2024-01-11T02:44:42;27.50;;;13.73;;
36597;SDS011;22607;49.550;11.940;2024-01-11T02:47:16;29.73;;;13.23;;
36597;SDS011;22607;49.550;11.940;2024-01-11T02:49:43;33.33;;;14.70;;
36597;SDS011;22607;49.550;11.940;2024-01-11T02:52:09;25.37;;;11.33;;
36597;SDS011;22607;49.550;11.940;2024-01-11T02:54:36;26.73;;;10.63;;
36597;SDS011;22607;49.550;11.940;2024-01-11T02:57:03;30.33;;;13.27;;
36597;SDS011;22607;49.550;11.940;2024-01-11T02:59:30;32.53;;;13.57;;
36597;SDS011;22607;49.550;11.940;2024-01-11T03:02:03;25.57;;;12.00;;
36597;SDS011;22607;49.550;11.940;2024-01-11T03:04:30;27.27;;;13.17;;
36597;SDS011;22607;49.550;11.940;2024-01-11T03:09:36;29.83;;;12.23;;
36597;SDS011;22607;49.550;11.940;2024-01-11T03:12:03;31.43;;;13.40;;
36597;SDS011;22607;49.550;11.940;2024-01-11T03:14:30;28.07;;;12.63;;
36597;SDS011;22607;49.550;11.940;2024-01-11T03:16:57;30.83;;;13.17;;
36597;SDS011;22607;49.550;11.940;2024-01-11T03:19:24;30.13;;;12.40;;
36597;SDS011;22607;49.550;11.940;2024-01-11T03:21:52;29.07;;;12.57;;
36597;SDS011;22607;49.550;11.940;2024-01-11T03:24:19;30.13;;;14.30;;
36597;SDS011;22607;49.550;11.940;2024-01-11T03:26:47;28.40;;;12.33;;
36597;SDS011;22607;49.550;11.940;2024-01-11T03:29:15;29.47;;;13.37;;
36597;SDS011;22607;49.550;11.940;2024-01-11T03:31:57;29.97;;;13.60;;
36597;SDS011;22607;49.550;11.940;2024-01-11T03:34:24;29.87;;;14.13;;
36597;SDS011;22607;49.550;11.940;2024-01-11T03:36:51;26.17;;;12.53;;
36597;SDS011;22607;49.550;11.940;2024-01-11T03:39:18;34.47;;;15.80;;
36597;SDS011;22607;49.550;11.940;2024-01-11T03:41:45;34.70;;;14.00;;
36597;SDS011;22607;49.550;11.940;2024-01-11T03:44:21;29.67;;;12.63;;
36597;SDS011;22607;49.550;11.940;2024-01-11T03:46:49;29.73;;;12.77;;
36597;SDS011;22607;49.550;11.940;2024-01-11T03:49:16;27.00;;;12.70;;
36597;SDS011;22607;49.550;11.940;2024-01-11T03:51:45;29.33;;;12.27;;
36597;SDS011;22607;49.550;11.940;2024-01-11T03:54:11;28.67;;;13.40;;
36597;SDS011;22607;49.550;11.940;2024-01-11T03:56:46;27.47;;;11.70;;
36597;SDS011;22607;49.550;11.940;2024-01-11T03:59:15;25.63;;;12.90;;
36597;SDS011;22607;49.550;11.940;2024-01-11T04:01:49;25.33;;;12.00;;
36597;SDS011;22607;49.550;11.940;2024-01-11T04:04:16;29.67;;;12.70;;
36597;SDS011;22607;49.550;11.940;2024-01-11T04:06:44;29.83;;;13.13;;
36597;SDS011;22607;49.550;11.940;2024-01-11T04:09:11;28.17;;;13.47;;
36597;SDS011;22607;49.550;11.940;2024-01-11T04:11:38;27.97;;;11.67;;
36597;SDS011;22607;49.550;11.940;2024-01-11T04:14:05;30.07;;;13.30;;
36597;SDS011;22607;49.550;11.940;2024-01-11T04:16:39;30.13;;;13.37;;
36597;SDS011;22607;49.550;11.940;2024-01-11T04:19:07;29.23;;;12.57;;
36597;SDS011;22607;49.550;11.940;2024-01-11T04:21:47;31.83;;;13.40;;
36597;SDS011;22607;49.550;11.940;2024-01-11T04:24:14;31.40;;;14.30;;
36597;SDS011;22607;49.550;11.940;2024-01-11T04:26:53;28.43;;;12.47;;
36597;SDS011;22607;49.550;11.940;2024-01-11T04:29:30;31.00;;;13.23;;
36597;SDS011;22607;49.550;11.940;2024-01-11T04:31:58;30.60;;;13.77;;
36597;SDS011;22607;49.550;11.940;2024-01-11T04:34:27;29.20;;;13.17;;
36597;SDS011;22607;49.550;11.940;2024-01-11T04:36:55;28.77;;;13.40;;
36597;SDS011;22607;49.550;11.940;2024-01-11T04:39:22;29.40;;;13.43;;
36597;SDS011;22607;49.550;11.940;2024-01-11T04:41:49;34.43;;;14.73;;
36597;SDS011;22607;49.550;11.940;2024-01-11T04:44:16;31.37;;;14.23;;
36597;SDS011;22607;49.550;11.940;2024-01-11T04:46:43;32.83;;;14.70;;
36597;SDS011;22607;49.550;11.940;2024-01-11T04:49:10;31.93;;;13.57;;
36597;SDS011;22607;49.550;11.940;2024-01-11T04:51:37;32.33;;;13.77;;
36597;SDS011;22607;49.550;11.940;2024-01-11T04:54:03;31.43;;;13.77;;
36597;SDS011;22607;49.550;11.940;2024-01-11T04:56:40;30.23;;;13.73;;
36597;SDS011;22607;49.550;11.940;2024-01-11T04:59:07;31.47;;;13.57;;
36597;SDS011;22607;49.550;11.940;2024-01-11T05:01:33;30.67;;;12.87;;
36597;SDS011;22607;49.550;11.940;2024-01-11T05:04:00;30.93;;;13.33;;
36597;SDS011;22607;49.550;11.940;2024-01-11T05:06:30;34.90;;;14.63;;
36597;SDS011;22607;49.550;11.940;2024-01-11T05:08:57;33.33;;;14.73;;
36597;SDS011;22607;49.550;11.940;2024-01-11T05:11:27;31.50;;;13.10;;
36597;SDS011;22607;49.550;11.940;2024-01-11T05:13:54;28.93;;;13.30;;
36597;SDS011;22607;49.550;11.940;2024-01-11T05:16:22;26.77;;;12.17;;
36597;SDS011;22607;49.550;11.940;2024-01-11T05:21:25;30.03;;;13.87;;
36597;SDS011;22607;49.550;11.940;2024-01-11T05:23:52;31.38;;;13.15;;
36597;SDS011;22607;49.550;11.940;2024-01-11T05:26:27;26.37;;;12.63;;
36597;SDS011;22607;49.550;11.940;2024-01-11T05:28:54;34.07;;;15.33;;
36597;SDS011;22607;49.550;11.940;2024-01-11T05:31:21;31.90;;;12.63;;
36597;SDS011;22607;49.550;11.940;2024-01-11T05:33:48;30.13;;;13.23;;
36597;SDS011;22607;49.550;11.940;2024-01-11T05:36:16;30.40;;;12.80;;
36597;SDS011;22607;49.550;11.940;2024-01-11T05:38:44;34.73;;;15.30;;
36597;SDS011;22607;49.550;11.940;2024-01-11T05:43:46;29.67;;;13.17;;
36597;SDS011;22607;49.550;11.940;2024-01-11T05:46:13;34.07;;;14.73;;
36597;SDS011;22607;49.550;11.940;2024-01-11T05:48:40;33.43;;;14.33;;
36597;SDS011;22607;49.550;11.940;2024-01-11T05:51:07;33.63;;;14.80;;
36597;SDS011;22607;49.550;11.940;2024-01-11T05:53:43;34.23;;;15.77;;
36597;SDS011;22607;49.550;11.940;2024-01-11T05:56:10;30.47;;;14.50;;
36597;SDS011;22607;49.550;11.940;2024-01-11T05:58:37;36.53;;;16.47;;
36597;SDS011;22607;49.550;11.940;2024-01-11T06:01:07;34.93;;;15.07;;
36597;SDS011;22607;49.550;11.940;2024-01-11T06:03:34;45.40;;;21.90;;
36597;SDS011;22607;49.550;11.940;2024-01-11T06:06:03;43.23;;;19.53;;
36597;SDS011;22607;49.550;11.940;2024-01-11T06:08:30;40.83;;;18.43;;
36597;SDS011;22607;49.550;11.940;2024-01-11T06:10:58;40.93;;;17.37;;
36597;SDS011;22607;49.550;11.940;2024-01-11T06:13:25;33.47;;;15.23;;
36597;SDS011;22607;49.550;11.940;2024-01-11T06:15:52;32.00;;;14.13;;
36597;SDS011;22607;49.550;11.940;2024-01-11T06:18:19;36.57;;;15.67;;
36597;SDS011;22607;49.550;11.940;2024-01-11T06:24:04;32.77;;;14.17;;
36597;SDS011;22607;49.550;11.940;2024-01-11T06:26:37;28.23;;;12.90;;
36597;SDS011;22607;49.550;11.940;2024-01-11T06:29:03;30.57;;;13.83;;
36597;SDS011;22607;49.550;11.940;2024-01-11T06:31:32;34.10;;;13.93;;
36597;SDS011;22607;49.550;11.940;2024-01-11T06:33:59;32.43;;;13.47;;
36597;SDS011;22607;49.550;11.940;2024-01-11T06:36:29;30.60;;;13.30;;
36597;SDS011;22607;49.550;11.940;2024-01-11T06:38:56;30.67;;;12.03;;
36597;SDS011;22607;49.550;11.940;2024-01-11T06:41:33;28.23;;;13.10;;
36597;SDS011;22607;49.550;11.940;2024-01-11T06:44:00;32.97;;;13.97;;
36597;SDS011;22607;49.550;11.940;2024-01-11T06:46:33;32.63;;;14.53;;
36597;SDS011;22607;49.550;11.940;2024-01-11T06:49:02;31.27;;;14.13;;
36597;SDS011;22607;49.550;11.940;2024-01-11T06:51:31;30.47;;;12.83;;
36597;SDS011;22607;49.550;11.940;2024-01-11T06:53:58;27.67;;;12.97;;
36597;SDS011;22607;49.550;11.940;2024-01-11T06:56:27;28.83;;;13.43;;
36597;SDS011;22607;49.550;11.940;2024-01-11T06:59:00;27.27;;;13.40;;
36597;SDS011;22607;49.550;11.940;2024-01-11T07:01:27;28.40;;;11.80;;
36597;SDS011;22607;49.550;11.940;2024-01-11T07:04:05;28.60;;;13.10;;
36597;SDS011;22607;49.550;11.940;2024-01-11T07:06:31;34.13;;;14.57;;
36597;SDS011;22607;49.550;11.940;2024-01-11T07:08:58;27.87;;;12.90;;
36597;SDS011;22607;49.550;11.940;2024-01-11T07:11:26;30.80;;;13.67;;
36597;SDS011;22607;49.550;11.940;2024-01-11T07:13:53;28.93;;;13.20;;
36597;SDS011;22607;49.550;11.940;2024-01-11T07:16:20;30.90;;;12.37;;
36597;SDS011;22607;49.550;11.940;2024-01-11T07:18:48;33.80;;;14.13;;
36597;SDS011;22607;49.550;11.940;2024-01-11T07:21:24;26.03;;;12.23;;
36597;SDS011;22607;49.550;11.940;2024-01-11T07:24:05;31.87;;;13.60;;
36597;SDS011;22607;49.550;11.940;2024-01-11T07:26:32;28.20;;;11.83;;
36597;SDS011;22607;49.550;11.940;2024-01-11T07:28:59;24.57;;;12.57;;
36597;SDS011;22607;49.550;11.940;2024-01-11T07:31:26;33.50;;;14.67;;
36597;SDS011;22607;49.550;11.940;2024-01-11T07:33:53;29.93;;;13.00;;
36597;SDS011;22607;49.550;11.940;2024-01-11T07:36:20;27.00;;;14.30;;
36597;SDS011;22607;49.550;11.940;2024-01-11T07:38:47;32.53;;;14.50;;
36597;SDS011;22607;49.550;11.940;2024-01-11T07:41:21;29.23;;;14.27;;
36597;SDS011;22607;49.550;11.940;2024-01-11T07:43:49;31.17;;;14.03;;
36597;SDS011;22607;49.550;11.940;2024-01-11T07:46:20;37.28;;;14.90;;
36597;SDS011;22607;49.550;11.940;2024-01-11T07:49:04;32.67;;;15.50;;
36597;SDS011;22607;49.550;11.940;2024-01-11T07:51:32;34.70;;;15.47;;
36597;SDS011;22607;49.550;11.940;2024-01-11T07:53:59;32.73;;;14.20;;
36597;SDS011;22607;49.550;11.940;2024-01-11T07:56:33;30.10;;;14.63;;
36597;SDS011;22607;49.550;11.940;2024-01-11T07:59:02;32.00;;;15.30;;
36597;SDS011;22607;49.550;11.940;2024-01-11T08:01:28;28.47;;;12.87;;
36597;SDS011;22607;49.550;11.940;2024-01-11T08:03:55;35.37;;;14.83;;
36597;SDS011;22607;49.550;11.940;2024-01-11T08:06:24;30.33;;;14.37;;
36597;SDS011;22607;49.550;11.940;2024-01-11T08:08:51;31.50;;;14.97;;
36597;SDS011;22607;49.550;11.940;2024-01-11T08:11:19;29.13;;;13.73;;
36597;SDS011;22607;49.550;11.940;2024-01-11T08:13:46;30.30;;;13.30;;
36597;SDS011;22607;49.550;11.940;2024-01-11T08:16:16;32.37;;;16.10;;
36597;SDS011;22607;49.550;11.940;2024-01-11T08:18:44;33.40;;;14.55;;
36597;SDS011;22607;49.550;11.940;2024-01-11T08:21:12;30.73;;;14.50;;
36597;SDS011;22607;49.550;11.940;2024-01-11T08:23:41;32.97;;;14.73;;
36597;SDS011;22607;49.550;11.940;2024-01-11T08:26:26;33.57;;;15.70;;
36597;SDS011;22607;49.550;11.940;2024-01-11T08:28:52;27.80;;;13.23;;
36597;SDS011;22607;49.550;11.940;2024-01-11T08:31:20;32.63;;;15.07;;
36597;SDS011;22607;49.550;11.940;2024-01-11T08:33:47;28.47;;;14.73;;
36597;SDS011;22607;49.550;11.940;2024-01-11T08:38:55;28.98;;;13.98;;
36597;SDS011;22607;49.550;11.940;2024-01-11T08:41:22;35.20;;;19.30;;
36597;SDS011;22607;49.550;11.940;2024-01-11T08:44:01;30.92;;;16.08;;
36597;SDS011;22607;49.550;11.940;2024-01-11T08:46:36;33.80;;;15.93;;
36597;SDS011;22607;49.550;11.940;2024-01-11T08:49:03;32.13;;;16.38;;
36597;SDS011;22607;49.550;11.940;2024-01-11T08:51:31;32.13;;;15.10;;
36597;SDS011;22607;49.550;11.940;2024-01-11T08:54:07;31.95;;;16.17;;
36597;SDS011;22607;49.550;11.940;2024-01-11T08:56:46;28.73;;;13.88;;
36597;SDS011;22607;49.550;11.940;2024-01-11T08:59:17;29.02;;;13.98;;
36597;SDS011;22607;49.550;11.940;2024-01-11T09:01:44;24.08;;;12.35;;
36597;SDS011;22607;49.550;11.940;2024-01-11T09:04:27;25.35;;;11.68;;
36597;SDS011;22607;49.550;11.940;2024-01-11T09:07:04;28.40;;;13.15;;
36597;SDS011;22607;49.550;11.940;2024-01-11T09:09:34;30.45;;;14.73;;
36597;SDS011;22607;49.550;11.940;2024-01-11T09:12:13;27.83;;;13.95;;
36597;SDS011;22607;49.550;11.940;2024-01-11T09:17:33;29.63;;;14.63;;
36597;SDS011;22607;49.550;11.940;2024-01-11T09:20:01;30.38;;;14.85;;
36597;SDS011;22607;49.550;11.940;2024-01-11T09:22:28;30.83;;;14.48;;
36597;SDS011;22607;49.550;11.940;2024-01-11T09:24:57;28.20;;;13.75;;
36597;SDS011;22607;49.550;11.940;2024-01-11T09:27:24;25.95;;;12.63;;
36597;SDS011;22607;49.550;11.940;2024-01-11T09:29:54;31.23;;;15.60;;
36597;SDS011;22607;49.550;11.940;2024-01-11T09:32:22;24.80;;;12.93;;
36597;SDS011;22607;49.550;11.940;2024-01-11T09:34:53;26.80;;;13.98;;
36597;SDS011;22607;49.550;11.940;2024-01-11T09:37:24;27.52;;;12.73;;
36597;SDS011;22607;49.550;11.940;2024-01-11T09:42:42;28.63;;;14.27;;
36597;SDS011;22607;49.550;11.940;2024-01-11T09:45:13;28.23;;;14.18;;
36597;SDS011;22607;49.550;11.940;2024-01-11T09:47:48;26.95;;;13.65;;
36597;SDS011;22607;49.550;11.940;2024-01-11T09:50:17;30.77;;;16.10;;
36597;SDS011;22607;49.550;11.940;2024-01-11T09:52:48;30.75;;;14.20;;
36597;SDS011;22607;49.550;11.940;2024-01-11T09:55:16;28.92;;;14.18;;
36597;SDS011;22607;49.550;11.940;2024-01-11T09:57:45;28.85;;;14.88;;
36597;SDS011;22607;49.550;11.940;2024-01-11T10:00:18;26.02;;;14.10;;
36597;SDS011;22607;49.550;11.940;2024-01-11T10:02:50;29.15;;;14.52;;
36597;SDS011;22607;49.550;11.940;2024-01-11T10:05:18;32.92;;;18.10;;
36597;SDS011;22607;49.550;11.940;2024-01-11T10:07:57;33.83;;;18.45;;
36597;SDS011;22607;49.550;11.940;2024-01-11T10:13:17;48.65;;;25.67;;
36597;SDS011;22607;49.550;11.940;2024-01-11T10:15:44;52.80;;;26.15;;
36597;SDS011;22607;49.550;11.940;2024-01-11T10:18:12;62.67;;;32.95;;
36597;SDS011;22607;49.550;11.940;2024-01-11T10:20:39;33.53;;;18.40;;
36597;SDS011;22607;49.550;11.940;2024-01-11T10:23:06;27.20;;;14.38;;
36597;SDS011;22607;49.550;11.940;2024-01-11T10:25:33;24.60;;;12.70;;
36597;SDS011;22607;49.550;11.940;2024-01-11T10:28:13;24.63;;;12.93;;
36597;SDS011;22607;49.550;11.940;2024-01-11T10:30:41;27.83;;;14.30;;
36597;SDS011;22607;49.550;11.940;2024-01-11T10:33:08;27.88;;;13.68;;
36597;SDS011;22607;49.550;11.940;2024-01-11T10:35:38;28.20;;;14.18;;
36597;SDS011;22607;49.550;11.940;2024-01-11T10:38:09;27.67;;;13.55;;
36597;SDS011;22607;49.550;11.940;2024-01-11T10:40:39;29.45;;;15.13;;
36597;SDS011;22607;49.550;11.940;2024-01-11T10:43:10;28.58;;;13.85;;
36597;SDS011;22607;49.550;11.940;2024-01-11T10:45:42;27.80;;;13.48;;
36597;SDS011;22607;49.550;11.940;2024-01-11T10:48:26;24.73;;;12.95;;
36597;SDS011;22607;49.550;11.940;2024-01-11T10:51:00;29.70;;;15.63;;
36597;SDS011;22607;49.550;11.940;2024-01-11T10:53:32;25.75;;;12.73;;
36597;SDS011;22607;49.550;11.940;2024-01-11T10:56:02;24.90;;;13.35;;
36597;SDS011;22607;49.550;11.940;2024-01-11T10:58:31;42.80;;;24.88;;
36597;SDS011;22607;49.550;11.940;2024-01-11T11:00:59;30.80;;;18.30;;
36597;SDS011;22607;49.550;11.940;2024-01-11T11:03:30;25.48;;;11.48;;
36597;SDS011;22607;49.550;11.940;2024-01-11T11:05:58;27.55;;;13.00;;
36597;SDS011;22607;49.550;11.940;2024-01-11T11:08:25;24.95;;;12.18;;
36597;SDS011;22607;49.550;11.940;2024-01-11T11:13:48;22.85;;;10.88;;
36597;SDS011;22607;49.550;11.940;2024-01-11T11:16:16;25.13;;;12.82;;
36597;SDS011;22607;49.550;11.940;2024-01-11T11:18:42;22.48;;;11.88;;
36597;SDS011;22607;49.550;11.940;2024-01-11T11:23:58;24.50;;;11.93;;
36597;SDS011;22607;49.550;11.940;2024-01-11T11:26:25;25.17;;;12.80;;
36597;SDS011;22607;49.550;11.940;2024-01-11T11:28:54;22.02;;;11.45;;
36597;SDS011;22607;49.550;11.940;2024-01-11T11:34:44;24.58;;;12.85;;
36597;SDS011;22607;49.550;11.940;2024-01-11T11:37:14;23.17;;;12.40;;
36597;SDS011;22607;49.550;11.940;2024-01-11T11:39:50;25.40;;;13.05;;
36597;SDS011;22607;49.550;11.940;2024-01-11T11:42:17;24.45;;;11.98;;
36597;SDS011;22607;49.550;11.940;2024-01-11T11:44:54;24.23;;;12.68;;
36597;SDS011;22607;49.550;11.940;2024-01-11T11:47:22;20.83;;;10.32;;
36597;SDS011;22607;49.550;11.940;2024-01-11T11:49:57;24.25;;;12.68;;
36597;SDS011;22607;49.550;11.940;2024-01-11T11:52:34;23.15;;;12.07;;
36597;SDS011;22607;49.550;11.940;2024-01-11T11:55:03;24.27;;;10.40;;
36597;SDS011;22607;49.550;11.940;2024-01-11T12:00:05;21.50;;;11.15;;
36597;SDS011;22607;49.550;11.940;2024-01-11T12:02:35;21.95;;;10.27;;
36597;SDS011;22607;49.550;11.940;2024-01-11T12:05:03;27.60;;;14.05;;
36597;SDS011;22607;49.550;11.940;2024-01-11T12:07:36;22.50;;;10.57;;
36597;SDS011;22607;49.550;11.940;2024-01-11T12:10:04;22.65;;;10.25;;
36597;SDS011;22607;49.550;11.940;2024-01-11T12:12:31;22.45;;;11.55;;
36597;SDS011;22607;49.550;11.940;2024-01-11T12:15:00;21.15;;;10.23;;
36597;SDS011;22607;49.550;11.940;2024-01-11T12:17:27;19.90;;;10.02;;
36597;SDS011;22607;49.550;11.940;2024-01-11T12:19:54;25.20;;;12.68;;
36597;SDS011;22607;49.550;11.940;2024-01-11T12:22:25;21.65;;;10.43;;
36597;SDS011;22607;49.550;11.940;2024-01-11T12:24:52;21.45;;;10.48;;
36597;SDS011;22607;49.550;11.940;2024-01-11T12:27:23;20.88;;;10.32;;
36597;SDS011;22607;49.550;11.940;2024-01-11T12:30:00;21.20;;;10.82;;
36597;SDS011;22607;49.550;11.940;2024-01-11T12:32:32;44.50;;;31.90;;
36597;SDS011;22607;49.550;11.940;2024-01-11T12:38:04;19.15;;;9.45;;
36597;SDS011;22607;49.550;11.940;2024-01-11T12:40:33;18.95;;;9.88;;
36597;SDS011;22607;49.550;11.940;2024-01-11T12:45:38;20.00;;;9.25;;
36597;SDS011;22607;49.550;11.940;2024-01-11T12:48:09;18.90;;;9.30;;
36597;SDS011;22607;49.550;11.940;2024-01-11T12:50:42;21.35;;;10.95;;
36597;SDS011;22607;49.550;11.940;2024-01-11T12:53:09;18.73;;;8.45;;
36597;SDS011;22607;49.550;11.940;2024-01-11T12:55:47;18.10;;;8.68;;
36597;SDS011;22607;49.550;11.940;2024-01-11T12:58:23;19.70;;;9.23;;
36597;SDS011;22607;49.550;11.940;2024-01-11T13:00:53;21.52;;;10.05;;
36597;SDS011;22607;49.550;11.940;2024-01-11T13:03:22;21.23;;;10.45;;
36597;SDS011;22607;49.550;11.940;2024-01-11T13:05:54;21.02;;;9.45;;
36597;SDS011;22607;49.550;11.940;2024-01-11T13:08:34;20.42;;;9.63;;
36597;SDS011;22607;49.550;11.940;2024-01-11T13:11:04;19.58;;;9.35;;
36597;SDS011;22607;49.550;11.940;2024-01-11T13:13:35;17.98;;;7.82;;
36597;SDS011;22607;49.550;11.940;2024-01-11T13:16:09;18.88;;;9.23;;
36597;SDS011;22607;49.550;11.940;2024-01-11T13:18:41;18.70;;;8.93;;
36597;SDS011;22607;49.550;11.940;2024-01-11T13:21:15;18.60;;;8.85;;
36597;SDS011;22607;49.550;11.940;2024-01-11T13:23:43;17.48;;;7.55;;
36597;SDS011;22607;49.550;11.940;2024-01-11T13:26:15;22.27;;;7.57;;
36597;SDS011;22607;49.550;11.940;2024-01-11T13:28:42;16.88;;;7.80;;
36597;SDS011;22607;49.550;11.940;2024-01-11T13:31:10;17.80;;;8.18;;
36597;SDS011;22607;49.550;11.940;2024-01-11T13:33:38;16.60;;;7.82;;
36597;SDS011;22607;49.550;11.940;2024-01-11T13:36:14;17.05;;;8.23;;
36597;SDS011;22607;49.550;11.940;2024-01-11T13:38:47;19.85;;;8.68;;
36597;SDS011;22607;49.550;11.940;2024-01-11T13:41:16;18.10;;;8.55;;
36597;SDS011;22607;49.550;11.940;2024-01-11T13:43:43;19.45;;;8.32;;
36597;SDS011;22607;49.550;11.940;2024-01-11T13:46:17;17.88;;;8.68;;
36597;SDS011;22607;49.550;11.940;2024-01-11T13:48:46;16.70;;;8.18;;
36597;SDS011;22607;49.550;11.940;2024-01-11T13:51:15;19.17;;;8.45;;
36597;SDS011;22607;49.550;11.940;2024-01-11T13:53:48;17.02;;;7.57;;
36597;SDS011;22607;49.550;11.940;2024-01-11T13:56:15;20.40;;;9.55;;
36597;SDS011;22607;49.550;11.940;2024-01-11T13:58:49;18.40;;;9.02;;
36597;SDS011;22607;49.550;11.940;2024-01-11T14:01:16;17.85;;;7.68;;
36597;SDS011;22607;49.550;11.940;2024-01-11T14:03:43;23.40;;;11.23;;
36597;SDS011;22607;49.550;11.940;2024-01-11T14:06:09;16.13;;;7.20;;
36597;SDS011;22607;49.550;11.940;2024-01-11T14:08:37;18.45;;;8.52;;
36597;SDS011;22607;49.550;11.940;2024-01-11T14:11:04;16.17;;;7.53;;
36597;SDS011;22607;49.550;11.940;2024-01-11T14:13:33;17.90;;;7.32;;
36597;SDS011;22607;49.550;11.940;2024-01-11T14:16:00;16.73;;;7.05;;
36597;SDS011;22607;49.550;11.940;2024-01-11T14:18:28;23.30;;;9.88;;
36597;SDS011;22607;49.550;11.940;2024-01-11T14:20:55;26.38;;;11.95;;
36597;SDS011;22607;49.550;11.940;2024-01-11T14:23:22;19.15;;;10.95;;
36597;SDS011;22607;49.550;11.940;2024-01-11T14:25:53;18.95;;;9.23;;
36597;SDS011;22607;49.550;11.940;2024-01-11T14:28:21;19.58;;;8.35;;
36597;SDS011;22607;49.550;11.940;2024-01-11T14:31:04;17.25;;;8.05;;
36597;SDS011;22607;49.550;11.940;2024-01-11T14:33:39;16.67;;;8.13;;
36597;SDS011;22607;49.550;11.940;2024-01-11T14:36:06;16.55;;;7.35;;
36597;SDS011;22607;49.550;11.940;2024-01-11T14:38:35;16.58;;;7.10;;
36597;SDS011;22607;49.550;11.940;2024-01-11T14:41:07;16.92;;;7.05;;
36597;SDS011;22607;49.550;11.940;2024-01-11T14:43:35;18.92;;;7.53;;
36597;SDS011;22607;49.550;11.940;2024-01-11T14:46:02;14.65;;;6.40;;
36597;SDS011;22607;49.550;11.940;2024-01-11T14:48:39;16.67;;;7.55;;
36597;SDS011;22607;49.550;11.940;2024-01-11T14:51:09;14.40;;;7.43;;
36597;SDS011;22607;49.550;11.940;2024-01-11T14:53:42;15.70;;;7.28;;
36597;SDS011;22607;49.550;11.940;2024-01-11T14:58:39;15.40;;;6.15;;
36597;SDS011;22607;49.550;11.940;2024-01-11T15:01:06;16.70;;;6.30;;
36597;SDS011;22607;49.550;11.940;2024-01-11T15:06:11;15.30;;;7.13;;
36597;SDS011;22607;49.550;11.940;2024-01-11T15:11:22;15.65;;;6.25;;
36597;SDS011;22607;49.550;11.940;2024-01-11T15:13:48;15.43;;;6.20;;
36597;SDS011;22607;49.550;11.940;2024-01-11T15:16:25;13.38;;;5.65;;
36597;SDS011;22607;49.550;11.940;2024-01-11T15:18:52;17.38;;;7.00;;
36597;SDS011;22607;49.550;11.940;2024-01-11T15:21:19;15.57;;;6.68;;
36597;SDS011;22607;49.550;11.940;2024-01-11T15:23:46;17.65;;;6.15;;
36597;SDS011;22607;49.550;11.940;2024-01-11T15:26:13;14.60;;;6.03;;
36597;SDS011;22607;49.550;11.940;2024-01-11T15:28:50;15.20;;;6.82;;